Aérodrome :
LOGIN :

S'inscrire | Disclaimer

   EN    FR    IT 

 










Légende :    VFR   VFR Marginal   IFR   IFR Intensif   IFR Très Intensif
Visi : 
Plafond : 
>= 8 km
>= 3000ft
5 à 8 km
1000 à 3000 ft
1500m à 5 km
500 à 1000 ft
800 à 1500m
200 à 500 ft
< 800m
< 200 ft
Symboles :   Orages  Brouillard  Fortes neiges  Fortes précipitations  Vent > 20 kt
SIGMETs :   Divers  Orages  Givrage  Turbulence  Onde Orograph.  Cendres Volcan.







- Altitude de l'aérodrome : 267 ft


EGDR - Culdrose Navy

DERNIER METAR :
  • 190750Z 24006KT 0150 -DZ OVC000 15/15 Q1025 RED

METARs EXPIRÉS :
  • 190650Z 23007KT 0150 -DZ OVC000 15/15 Q1024 RED
  • 190550Z 23006KT 0100 FG OVC000 15/14 Q1024 REDZ RED

TAF TAF EGDR
Valide du 19 à 09h jusqu'au 19 à 18h UTC


190749Z 1909/1918 24008KT 0200 FG OVC000
PROB30
TEMPO 1909/1912 2000 BR -DZ FEW000 SCT003 BKN005
Pas de NOTAMs connus pour ce terrain.
1 SIGMET publié pour la FIR London (EGTT) :
 
Onde orographique forte
EGTT SIGMET 01 VALID 190605/191000 EGRR
EGTT LONDON FIR SEV MTW FCST WI N5500 E00200 - N5330 E00200 - N5330 W00300 - N5500 W00500 - N5500 E00200 FL040/240 STNR NC=



MET'MAP, la Météo Aéronautique d'un coup d'oeil ! - Copyright ORBIFLY Décembre 2007 - Disclaimer

ORBIFLY MET'MAP TEAM :

Programmation & Développement : Alexandra Zaïnal
Conception & Développement : Baudouin d'Aumeries
Co-Programmation & Développement : Marc-Olivier Méhu
Soutien technique & logistique : Manuel Goepfert

Contact : metmap@orbifly.com




SOURCES & CREDITS :

   NOAA